sensor_id;sensor_type;location;lat;lon;timestamp;pressure;altitude;pressure_sealevel;temperature;humidity
53908;BME280;40469;47.998;7.794;2023-06-24T00:00:42;99712.09;;;17.61;100.00
53908;BME280;40469;47.998;7.794;2023-06-24T00:03:08;99714.88;;;17.55;100.00
53908;BME280;40469;47.998;7.794;2023-06-24T00:05:33;99714.34;;;17.42;100.00
53908;BME280;40469;47.998;7.794;2023-06-24T00:07:58;99719.66;;;17.41;100.00
53908;BME280;40469;47.998;7.794;2023-06-24T00:10:27;99728.63;;;17.35;100.00
53908;BME280;40469;47.998;7.794;2023-06-24T00:12:52;99729.81;;;17.22;100.00
53908;BME280;40469;47.998;7.794;2023-06-24T00:15:17;99729.78;;;17.23;100.00
53908;BME280;40469;47.998;7.794;2023-06-24T00:17:43;99725.53;;;17.18;100.00
53908;BME280;40469;47.998;7.794;2023-06-24T00:20:08;99734.31;;;17.18;100.00
53908;BME280;40469;47.998;7.794;2023-06-24T00:22:36;99723.72;;;17.20;100.00
53908;BME280;40469;47.998;7.794;2023-06-24T00:25:01;99723.72;;;17.20;100.00
53908;BME280;40469;47.998;7.794;2023-06-24T00:27:26;99724.63;;;17.19;100.00
53908;BME280;40469;47.998;7.794;2023-06-24T00:29:51;99719.41;;;17.16;100.00
53908;BME280;40469;47.998;7.794;2023-06-24T00:32:17;99731.72;;;17.15;100.00
53908;BME280;40469;47.998;7.794;2023-06-24T00:34:42;99733.41;;;17.19;100.00
53908;BME280;40469;47.998;7.794;2023-06-24T00:37:08;99733.53;;;17.13;100.00
53908;BME280;40469;47.998;7.794;2023-06-24T00:39:34;99729.97;;;17.16;100.00
53908;BME280;40469;47.998;7.794;2023-06-24T00:41:59;99732.63;;;17.16;100.00
53908;BME280;40469;47.998;7.794;2023-06-24T00:44:24;99735.34;;;17.11;100.00
53908;BME280;40469;47.998;7.794;2023-06-24T00:46:49;99740.97;;;16.97;100.00
53908;BME280;40469;47.998;7.794;2023-06-24T00:49:15;99743.72;;;16.93;100.00
53908;BME280;40469;47.998;7.794;2023-06-24T00:51:41;99745.63;;;16.86;100.00
53908;BME280;40469;47.998;7.794;2023-06-24T00:54:12;99744.84;;;16.79;100.00
53908;BME280;40469;47.998;7.794;2023-06-24T00:56:37;99742.25;;;16.78;100.00
53908;BME280;40469;47.998;7.794;2023-06-24T00:59:07;99749.34;;;16.76;100.00
53908;BME280;40469;47.998;7.794;2023-06-24T01:01:33;99745.78;;;16.78;100.00
53908;BME280;40469;47.998;7.794;2023-06-24T01:04:00;99750.06;;;16.84;100.00
53908;BME280;40469;47.998;7.794;2023-06-24T01:06:26;99756.03;;;16.92;100.00
53908;BME280;40469;47.998;7.794;2023-06-24T01:08:54;99755.09;;;16.95;100.00
53908;BME280;40469;47.998;7.794;2023-06-24T01:11:21;99757.69;;;16.98;100.00
53908;BME280;40469;47.998;7.794;2023-06-24T01:13:46;99754.97;;;16.99;100.00
53908;BME280;40469;47.998;7.794;2023-06-24T01:16:13;99753.19;;;17.01;100.00
53908;BME280;40469;47.998;7.794;2023-06-24T01:18:41;99753.97;;;17.05;100.00
53908;BME280;40469;47.998;7.794;2023-06-24T01:31:41;99750.53;;;17.03;100.00
53908;BME280;40469;47.998;7.794;2023-06-24T01:36:56;99751.66;;;16.91;100.00
53908;BME280;40469;47.998;7.794;2023-06-24T01:39:22;99744.72;;;16.87;100.00
53908;BME280;40469;47.998;7.794;2023-06-24T01:41:57;99747.41;;;16.85;100.00
53908;BME280;40469;47.998;7.794;2023-06-24T01:44:23;99749.25;;;16.80;100.00
53908;BME280;40469;47.998;7.794;2023-06-24T01:46:50;99748.44;;;16.77;100.00
53908;BME280;40469;47.998;7.794;2023-06-24T01:49:17;99750.25;;;16.75;100.00
53908;BME280;40469;47.998;7.794;2023-06-24T01:51:44;99752.94;;;16.72;100.00
53908;BME280;40469;47.998;7.794;2023-06-24T01:54:13;99754.75;;;16.70;100.00
53908;BME280;40469;47.998;7.794;2023-06-24T01:56:39;99756.59;;;16.66;100.00
53908;BME280;40469;47.998;7.794;2023-06-24T01:59:06;99755.03;;;16.57;100.00
53908;BME280;40469;47.998;7.794;2023-06-24T02:01:32;99752.44;;;16.54;100.00
53908;BME280;40469;47.998;7.794;2023-06-24T02:03:58;99755.91;;;16.56;100.00
53908;BME280;40469;47.998;7.794;2023-06-24T02:06:25;99748.09;;;16.52;100.00
53908;BME280;40469;47.998;7.794;2023-06-24T02:08:51;99759.56;;;16.51;100.00
53908;BME280;40469;47.998;7.794;2023-06-24T02:11:18;99756.97;;;16.47;100.00
53908;BME280;40469;47.998;7.794;2023-06-24T02:13:44;99754.53;;;16.40;100.00
53908;BME280;40469;47.998;7.794;2023-06-24T02:16:10;99743.88;;;16.43;100.00
53908;BME280;40469;47.998;7.794;2023-06-24T02:18:37;99755.31;;;16.43;100.00
53908;BME280;40469;47.998;7.794;2023-06-24T02:21:03;99756.19;;;16.44;100.00
53908;BME280;40469;47.998;7.794;2023-06-24T02:23:29;99751.84;;;16.41;100.00
53908;BME280;40469;47.998;7.794;2023-06-24T02:25:54;99752.72;;;16.42;100.00
53908;BME280;40469;47.998;7.794;2023-06-24T02:28:20;99757.97;;;16.42;100.00
53908;BME280;40469;47.998;7.794;2023-06-24T02:30:46;99752.72;;;16.42;100.00
53908;BME280;40469;47.998;7.794;2023-06-24T02:33:12;99750.97;;;16.41;100.00
53908;BME280;40469;47.998;7.794;2023-06-24T02:35:37;99748.50;;;16.33;100.00
53908;BME280;40469;47.998;7.794;2023-06-24T02:38:03;99760.00;;;16.29;100.00
53908;BME280;40469;47.998;7.794;2023-06-24T02:40:28;99765.34;;;16.26;100.00
53908;BME280;40469;47.998;7.794;2023-06-24T02:42:53;99765.38;;;16.24;100.00
53908;BME280;40469;47.998;7.794;2023-06-24T02:45:18;99764.53;;;16.22;100.00
53908;BME280;40469;47.998;7.794;2023-06-24T02:47:44;99757.50;;;16.21;100.00
53908;BME280;40469;47.998;7.794;2023-06-24T02:50:11;99766.31;;;16.22;100.00
53908;BME280;40469;47.998;7.794;2023-06-24T02:52:37;99762.75;;;16.23;100.00
53908;BME280;40469;47.998;7.794;2023-06-24T02:55:02;99764.56;;;16.21;100.00
53908;BME280;40469;47.998;7.794;2023-06-24T02:57:28;99759.38;;;16.16;100.00
53908;BME280;40469;47.998;7.794;2023-06-24T02:59:54;99765.63;;;16.10;100.00
53908;BME280;40469;47.998;7.794;2023-06-24T03:02:20;99762.25;;;16.04;100.00
53908;BME280;40469;47.998;7.794;2023-06-24T03:04:46;99762.25;;;16.04;100.00
53908;BME280;40469;47.998;7.794;2023-06-24T03:07:12;99768.44;;;16.03;100.00
53908;BME280;40469;47.998;7.794;2023-06-24T03:09:37;99767.63;;;15.99;100.00
53908;BME280;40469;47.998;7.794;2023-06-24T03:12:03;99770.28;;;15.98;100.00
53908;BME280;40469;47.998;7.794;2023-06-24T03:14:28;99771.28;;;15.92;100.00
53908;BME280;40469;47.998;7.794;2023-06-24T03:16:53;99769.56;;;15.88;100.00
53908;BME280;40469;47.998;7.794;2023-06-24T03:19:18;99772.41;;;15.77;100.00
53908;BME280;40469;47.998;7.794;2023-06-24T03:21:44;99769.06;;;15.66;100.00
53908;BME280;40469;47.998;7.794;2023-06-24T03:24:09;99770.00;;;15.62;100.00
53908;BME280;40469;47.998;7.794;2023-06-24T03:26:35;99767.34;;;15.63;100.00
53908;BME280;40469;47.998;7.794;2023-06-24T03:29:00;99777.81;;;15.66;100.00
53908;BME280;40469;47.998;7.794;2023-06-24T03:31:26;99776.94;;;15.69;100.00
53908;BME280;40469;47.998;7.794;2023-06-24T03:33:51;99782.19;;;15.69;100.00
53908;BME280;40469;47.998;7.794;2023-06-24T03:36:16;99780.44;;;15.68;100.00
53908;BME280;40469;47.998;7.794;2023-06-24T03:38:41;99783.94;;;15.68;100.00
53908;BME280;40469;47.998;7.794;2023-06-24T03:41:07;99783.13;;;15.63;100.00
53908;BME280;40469;47.998;7.794;2023-06-24T03:43:32;99778.84;;;15.59;100.00
53908;BME280;40469;47.998;7.794;2023-06-24T03:45:57;99780.59;;;15.60;100.00
53908;BME280;40469;47.998;7.794;2023-06-24T03:48:22;99786.66;;;15.64;100.00
53908;BME280;40469;47.998;7.794;2023-06-24T03:50:48;99783.22;;;15.60;100.00
53908;BME280;40469;47.998;7.794;2023-06-24T03:53:13;99784.09;;;15.59;100.00
53908;BME280;40469;47.998;7.794;2023-06-24T03:55:38;99788.53;;;15.57;100.00
53908;BME280;40469;47.998;7.794;2023-06-24T03:58:03;99784.97;;;15.58;100.00
53908;BME280;40469;47.998;7.794;2023-06-24T04:00:29;99785.84;;;15.60;100.00
53908;BME280;40469;47.998;7.794;2023-06-24T04:02:54;99789.34;;;15.61;100.00
53908;BME280;40469;47.998;7.794;2023-06-24T04:05:20;99793.66;;;15.65;100.00
53908;BME280;40469;47.998;7.794;2023-06-24T04:07:45;99790.97;;;15.68;100.00
53908;BME280;40469;47.998;7.794;2023-06-24T04:10:12;99788.28;;;15.72;100.00
53908;BME280;40469;47.998;7.794;2023-06-24T04:12:37;99796.16;;;15.72;100.00
53908;BME280;40469;47.998;7.794;2023-06-24T04:15:03;99797.06;;;15.70;100.00
53908;BME280;40469;47.998;7.794;2023-06-24T04:17:29;99798.81;;;15.72;100.00
53908;BME280;40469;47.998;7.794;2023-06-24T04:19:54;99798.75;;;15.76;100.00
53908;BME280;40469;47.998;7.794;2023-06-24T04:22:19;99796.13;;;15.76;100.00
53908;BME280;40469;47.998;7.794;2023-06-24T04:24:44;99796.13;;;15.76;100.00
53908;BME280;40469;47.998;7.794;2023-06-24T04:27:10;99792.63;;;15.75;100.00
53908;BME280;40469;47.998;7.794;2023-06-24T04:29:35;99796.13;;;15.74;100.00
53908;BME280;40469;47.998;7.794;2023-06-24T04:32:00;99797.88;;;15.73;100.00
53908;BME280;40469;47.998;7.794;2023-06-24T04:34:25;99800.50;;;15.77;100.00
53908;BME280;40469;47.998;7.794;2023-06-24T04:36:51;99798.72;;;15.77;100.00
53908;BME280;40469;47.998;7.794;2023-06-24T04:39:16;99799.66;;;15.76;100.00
53908;BME280;40469;47.998;7.794;2023-06-24T04:41:41;99804.00;;;15.77;100.00
53908;BME280;40469;47.998;7.794;2023-06-24T04:44:06;99808.34;;;15.80;100.00
53908;BME280;40469;47.998;7.794;2023-06-24T04:46:32;99806.50;;;15.85;100.00
53908;BME280;40469;47.998;7.794;2023-06-24T04:48:58;99813.47;;;15.87;100.00
53908;BME280;40469;47.998;7.794;2023-06-24T04:51:23;99811.69;;;15.89;100.00
53908;BME280;40469;47.998;7.794;2023-06-24T04:53:48;99812.59;;;15.88;100.00
53908;BME280;40469;47.998;7.794;2023-06-24T04:56:14;99810.84;;;15.87;100.00
53908;BME280;40469;47.998;7.794;2023-06-24T04:58:39;99805.50;;;15.92;100.00
53908;BME280;40469;47.998;7.794;2023-06-24T05:01:04;99806.38;;;15.92;100.00
53908;BME280;40469;47.998;7.794;2023-06-24T05:03:29;99812.41;;;15.98;100.00
53908;BME280;40469;47.998;7.794;2023-06-24T05:05:55;99811.47;;;16.02;100.00
53908;BME280;40469;47.998;7.794;2023-06-24T05:08:20;99809.63;;;16.05;100.00
53908;BME280;40469;47.998;7.794;2023-06-24T05:10:45;99813.06;;;16.10;100.00
53908;BME280;40469;47.998;7.794;2023-06-24T05:13:10;99812.16;;;16.13;100.00
53908;BME280;40469;47.998;7.794;2023-06-24T05:15:36;99809.44;;;16.16;100.00
53908;BME280;40469;47.998;7.794;2023-06-24T05:18:01;99807.56;;;16.21;100.00
53908;BME280;40469;47.998;7.794;2023-06-24T05:20:26;99810.16;;;16.24;100.00
53908;BME280;40469;47.998;7.794;2023-06-24T05:22:51;99817.09;;;16.28;100.00
53908;BME280;40469;47.998;7.794;2023-06-24T05:25:17;99818.00;;;16.27;100.00
53908;BME280;40469;47.998;7.794;2023-06-24T05:27:42;99824.06;;;16.33;100.00
53908;BME280;40469;47.998;7.794;2023-06-24T05:30:09;99819.63;;;16.35;100.00
53908;BME280;40469;47.998;7.794;2023-06-24T05:32:35;99816.03;;;16.39;100.00
53908;BME280;40469;47.998;7.794;2023-06-24T05:35:00;99823.81;;;16.45;100.00
53908;BME280;40469;47.998;7.794;2023-06-24T05:37:25;99826.31;;;16.51;100.00
53908;BME280;40469;47.998;7.794;2023-06-24T05:39:50;99827.97;;;16.57;100.00
53908;BME280;40469;47.998;7.794;2023-06-24T05:42:16;99824.28;;;16.64;100.00
53908;BME280;40469;47.998;7.794;2023-06-24T05:44:41;99835.63;;;16.69;100.00
53908;BME280;40469;47.998;7.794;2023-06-24T05:47:07;99832.94;;;16.71;100.00
53908;BME280;40469;47.998;7.794;2023-06-24T05:49:32;99833.78;;;16.73;100.00
53908;BME280;40469;47.998;7.794;2023-06-24T05:51:57;99831.09;;;16.76;100.00
53908;BME280;40469;47.998;7.794;2023-06-24T05:54:23;99832.00;;;16.75;100.00
53908;BME280;40469;47.998;7.794;2023-06-24T05:56:48;99824.03;;;16.76;100.00
53908;BME280;40469;47.998;7.794;2023-06-24T05:59:13;99830.97;;;16.82;100.00
53908;BME280;40469;47.998;7.794;2023-06-24T06:01:38;99837.97;;;16.84;100.00
53908;BME280;40469;47.998;7.794;2023-06-24T06:04:04;99829.06;;;16.90;100.00
53908;BME280;40469;47.998;7.794;2023-06-24T06:06:29;99832.50;;;16.94;100.00
53908;BME280;40469;47.998;7.794;2023-06-24T06:08:54;99842.91;;;17.00;100.00
53908;BME280;40469;47.998;7.794;2023-06-24T06:11:19;99832.31;;;17.03;100.00
53908;BME280;40469;47.998;7.794;2023-06-24T06:13:45;99844.53;;;17.07;100.00
53908;BME280;40469;47.998;7.794;2023-06-24T06:16:10;99833.97;;;17.07;100.00
53908;BME280;40469;47.998;7.794;2023-06-24T06:18:35;99837.41;;;17.11;100.00
53908;BME280;40469;47.998;7.794;2023-06-24T06:21:00;99833.78;;;17.15;100.00
53908;BME280;40469;47.998;7.794;2023-06-24T06:23:26;99830.09;;;17.22;100.00
53908;BME280;40469;47.998;7.794;2023-06-24T06:25:52;99823.81;;;17.28;100.00
53908;BME280;40469;47.998;7.794;2023-06-24T06:28:17;99835.06;;;17.36;100.00
53908;BME280;40469;47.998;7.794;2023-06-24T06:30:43;99841.09;;;17.41;100.00
53908;BME280;40469;47.998;7.794;2023-06-24T06:33:08;99833.94;;;17.46;100.00
53908;BME280;40469;47.998;7.794;2023-06-24T06:35:33;99836.41;;;17.52;100.00
53908;BME280;40469;47.998;7.794;2023-06-24T06:37:59;99832.78;;;17.58;100.00
53908;BME280;40469;47.998;7.794;2023-06-24T06:40:25;99837.03;;;17.63;100.00
53908;BME280;40469;47.998;7.794;2023-06-24T06:42:52;99837.78;;;17.69;100.00
53908;BME280;40469;47.998;7.794;2023-06-24T06:45:17;99834.13;;;17.74;100.00
53908;BME280;40469;47.998;7.794;2023-06-24T06:47:42;99818.22;;;17.77;100.00
53908;BME280;40469;47.998;7.794;2023-06-24T06:50:07;99826.88;;;17.83;100.00
53908;BME280;40469;47.998;7.794;2023-06-24T06:55:36;99822.72;;;18.08;100.00
53908;BME280;40469;47.998;7.794;2023-06-24T06:58:02;99826.59;;;18.28;100.00
53908;BME280;40469;47.998;7.794;2023-06-24T07:00:27;99826.47;;;18.32;100.00
53908;BME280;40469;47.998;7.794;2023-06-24T07:02:52;99828.28;;;18.30;100.00
53908;BME280;40469;47.998;7.794;2023-06-24T07:05:17;99820.84;;;18.45;100.00
53908;BME280;40469;47.998;7.794;2023-06-24T07:07:43;99822.47;;;18.49;100.00
53908;BME280;40469;47.998;7.794;2023-06-24T07:10:10;99824.59;;;18.67;100.00
53908;BME280;40469;47.998;7.794;2023-06-24T07:12:35;99824.50;;;18.70;100.00
53908;BME280;40469;47.998;7.794;2023-06-24T07:15:01;99825.22;;;18.75;100.00
53908;BME280;40469;47.998;7.794;2023-06-24T07:17:26;99819.81;;;18.80;100.00
53908;BME280;40469;47.998;7.794;2023-06-24T07:19:51;99818.00;;;18.82;100.00
53908;BME280;40469;47.998;7.794;2023-06-24T07:22:17;99814.50;;;18.80;100.00
53908;BME280;40469;47.998;7.794;2023-06-24T07:24:42;99817.06;;;18.85;100.00
53908;BME280;40469;47.998;7.794;2023-06-24T07:27:07;99811.44;;;18.96;100.00
53908;BME280;40469;47.998;7.794;2023-06-24T07:29:32;99819.94;;;19.05;100.00
53908;BME280;40469;47.998;7.794;2023-06-24T07:31:58;99817.91;;;19.15;100.00
53908;BME280;40469;47.998;7.794;2023-06-24T07:34:23;99818.38;;;19.28;100.00
53908;BME280;40469;47.998;7.794;2023-06-24T07:36:48;99811.16;;;19.33;100.00
53908;BME280;40469;47.998;7.794;2023-06-24T07:39:15;99805.75;;;19.36;100.00
53908;BME280;40469;47.998;7.794;2023-06-24T07:41:41;99803.84;;;19.41;100.00
53908;BME280;40469;47.998;7.794;2023-06-24T07:44:07;99804.66;;;19.43;100.00
53908;BME280;40469;47.998;7.794;2023-06-24T07:46:32;99806.97;;;19.52;100.00
53908;BME280;40469;47.998;7.794;2023-06-24T07:48:57;99799.69;;;19.59;100.00
53908;BME280;40469;47.998;7.794;2023-06-24T07:51:23;99805.59;;;19.67;100.00
53908;BME280;40469;47.998;7.794;2023-06-24T07:53:48;99803.69;;;19.71;100.00
53908;BME280;40469;47.998;7.794;2023-06-24T07:56:13;99801.59;;;19.82;100.00
53908;BME280;40469;47.998;7.794;2023-06-24T07:58:38;99799.66;;;19.87;100.00
53908;BME280;40469;47.998;7.794;2023-06-24T08:01:04;99800.25;;;19.96;100.00
53908;BME280;40469;47.998;7.794;2023-06-24T08:03:30;99795.53;;;20.04;100.00
53908;BME280;40469;47.998;7.794;2023-06-24T08:05:55;99789.22;;;20.08;100.00
53908;BME280;40469;47.998;7.794;2023-06-24T08:08:21;99789.41;;;20.27;100.00
53908;BME280;40469;47.998;7.794;2023-06-24T08:10:46;99782.91;;;20.36;100.00
53908;BME280;40469;47.998;7.794;2023-06-24T08:13:12;99785.47;;;20.39;100.00
53908;BME280;40469;47.998;7.794;2023-06-24T08:15:37;99782.75;;;20.40;100.00
53908;BME280;40469;47.998;7.794;2023-06-24T08:18:02;99781.75;;;20.43;100.00
53908;BME280;40469;47.998;7.794;2023-06-24T08:20:27;99773.69;;;20.46;100.00
53908;BME280;40469;47.998;7.794;2023-06-24T08:22:53;99776.19;;;20.51;100.00
53908;BME280;40469;47.998;7.794;2023-06-24T08:25:18;99765.69;;;20.71;100.00
53908;BME280;40469;47.998;7.794;2023-06-24T08:27:43;99770.72;;;20.79;100.00
53908;BME280;40469;47.998;7.794;2023-06-24T08:30:11;99758.72;;;20.91;100.00
53908;BME280;40469;47.998;7.794;2023-06-24T08:32:37;99759.66;;;21.12;100.00
53908;BME280;40469;47.998;7.794;2023-06-24T08:35:02;99757.94;;;21.33;100.00
53908;BME280;40469;47.998;7.794;2023-06-24T08:37:27;99754.41;;;21.32;100.00
53908;BME280;40469;47.998;7.794;2023-06-24T08:39:53;99762.25;;;21.35;100.00
53908;BME280;40469;47.998;7.794;2023-06-24T08:42:18;99751.44;;;21.40;100.00
53908;BME280;40469;47.998;7.794;2023-06-24T08:44:43;99755.53;;;21.49;100.00
53908;BME280;40469;47.998;7.794;2023-06-24T08:47:08;99746.47;;;21.53;100.00
53908;BME280;40469;47.998;7.794;2023-06-24T08:49:34;99743.66;;;21.57;100.00
53908;BME280;40469;47.998;7.794;2023-06-24T08:52:04;99747.75;;;21.65;100.00
53908;BME280;40469;47.998;7.794;2023-06-24T08:54:34;99746.09;;;21.83;100.00
53908;BME280;40469;47.998;7.794;2023-06-24T08:56:59;99749.53;;;22.05;100.00
53908;BME280;40469;47.998;7.794;2023-06-24T08:59:26;99746.47;;;22.14;100.00
53908;BME280;40469;47.998;7.794;2023-06-24T09:01:52;99742.09;;;22.13;100.00
53908;BME280;40469;47.998;7.794;2023-06-24T09:04:17;99749.47;;;22.46;100.00
53908;BME280;40469;47.998;7.794;2023-06-24T09:06:42;99741.38;;;22.49;100.00
53908;BME280;40469;47.998;7.794;2023-06-24T09:09:20;99737.91;;;22.47;100.00
53908;BME280;40469;47.998;7.794;2023-06-24T09:14:18;99736.31;;;22.81;100.00
53908;BME280;40469;47.998;7.794;2023-06-24T09:16:50;99734.38;;;22.85;100.00
53908;BME280;40469;47.998;7.794;2023-06-24T09:19:19;99721.03;;;23.23;100.00
53908;BME280;40469;47.998;7.794;2023-06-24T09:21:45;99721.25;;;23.18;100.00
53908;BME280;40469;47.998;7.794;2023-06-24T09:24:11;99717.97;;;23.48;100.00
53908;BME280;40469;47.998;7.794;2023-06-24T09:26:36;99717.81;;;23.69;100.00
53908;BME280;40469;47.998;7.794;2023-06-24T09:29:01;99711.69;;;23.84;100.00
53908;BME280;40469;47.998;7.794;2023-06-24T09:31:28;99703.16;;;23.77;100.00
53908;BME280;40469;47.998;7.794;2023-06-24T09:33:56;99711.69;;;23.84;100.00
53908;BME280;40469;47.998;7.794;2023-06-24T09:36:21;99711.50;;;24.04;100.00
53908;BME280;40469;47.998;7.794;2023-06-24T09:38:47;99692.56;;;24.42;100.00
53908;BME280;40469;47.998;7.794;2023-06-24T09:41:13;99694.66;;;24.85;100.00
53908;BME280;40469;47.998;7.794;2023-06-24T09:43:40;99684.56;;;24.90;100.00
53908;BME280;40469;47.998;7.794;2023-06-24T09:46:07;99679.91;;;24.94;100.00
53908;BME280;40469;47.998;7.794;2023-06-24T09:48:33;99677.59;;;25.18;100.00
53908;BME280;40469;47.998;7.794;2023-06-24T09:51:02;99672.53;;;25.29;100.00
53908;BME280;40469;47.998;7.794;2023-06-24T09:53:31;99665.09;;;25.34;100.00
53908;BME280;40469;47.998;7.794;2023-06-24T09:55:58;99674.56;;;25.54;100.00
53908;BME280;40469;47.998;7.794;2023-06-24T09:58:24;99668.13;;;25.87;100.00
53908;BME280;40469;47.998;7.794;2023-06-24T10:00:50;99668.78;;;25.91;100.00
53908;BME280;40469;47.998;7.794;2023-06-24T10:03:16;99660.47;;;26.10;100.00
53908;BME280;40469;47.998;7.794;2023-06-24T10:05:41;99651.31;;;26.14;100.00
53908;BME280;40469;47.998;7.794;2023-06-24T10:08:08;99655.91;;;26.26;100.00
53908;BME280;40469;47.998;7.794;2023-06-24T10:10:34;99643.66;;;26.37;100.00
53908;BME280;40469;47.998;7.794;2023-06-24T10:12:59;99646.25;;;26.65;100.00
53908;BME280;40469;47.998;7.794;2023-06-24T10:15:24;99636.78;;;26.74;100.00
53908;BME280;40469;47.998;7.794;2023-06-24T10:17:50;99630.63;;;26.99;100.00
53908;BME280;40469;47.998;7.794;2023-06-24T10:20:23;99623.03;;;27.19;100.00
53908;BME280;40469;47.998;7.794;2023-06-24T10:22:48;99631.81;;;27.87;100.00
53908;BME280;40469;47.998;7.794;2023-06-24T10:25:15;99621.72;;;28.03;97.44
53908;BME280;40469;47.998;7.794;2023-06-24T10:27:40;99624.41;;;28.03;96.51
53908;BME280;40469;47.998;7.794;2023-06-24T10:30:07;99616.66;;;27.98;97.94
53908;BME280;40469;47.998;7.794;2023-06-24T10:32:42;99624.28;;;27.92;98.42
53908;BME280;40469;47.998;7.794;2023-06-24T10:35:23;99615.19;;;28.31;100.00
53908;BME280;40469;47.998;7.794;2023-06-24T10:37:59;99608.25;;;28.53;94.65
53908;BME280;40469;47.998;7.794;2023-06-24T10:40:43;99608.59;;;28.72;91.05
53908;BME280;40469;47.998;7.794;2023-06-24T10:45:49;99595.38;;;28.93;90.48
53908;BME280;40469;47.998;7.794;2023-06-24T10:48:15;99597.94;;;29.19;91.34
53908;BME280;40469;47.998;7.794;2023-06-24T10:50:40;99597.97;;;29.42;88.73
53908;BME280;40469;47.998;7.794;2023-06-24T10:53:07;99590.78;;;29.42;78.03
53908;BME280;40469;47.998;7.794;2023-06-24T10:55:33;99582.53;;;29.33;90.31
53908;BME280;40469;47.998;7.794;2023-06-24T10:58:07;99583.81;;;29.51;91.23
53908;BME280;40469;47.998;7.794;2023-06-24T11:00:33;99582.94;;;29.73;78.06
53908;BME280;40469;47.998;7.794;2023-06-24T11:03:07;99568.66;;;29.84;92.19
53908;BME280;40469;47.998;7.794;2023-06-24T11:05:32;99562.25;;;29.74;74.80
53908;BME280;40469;47.998;7.794;2023-06-24T11:07:57;99559.69;;;29.61;86.41
53908;BME280;40469;47.998;7.794;2023-06-24T11:10:22;99559.59;;;29.96;75.07
53908;BME280;40469;47.998;7.794;2023-06-24T11:12:49;99555.28;;;30.16;79.33
53908;BME280;40469;47.998;7.794;2023-06-24T11:15:14;99557.28;;;29.80;69.93
53908;BME280;40469;47.998;7.794;2023-06-24T11:17:40;99559.44;;;29.30;73.35
53908;BME280;40469;47.998;7.794;2023-06-24T11:20:10;99554.63;;;29.11;77.35
53908;BME280;40469;47.998;7.794;2023-06-24T11:22:36;99544.28;;;29.29;70.88
53908;BME280;40469;47.998;7.794;2023-06-24T11:25:01;99534.16;;;29.44;86.71
53908;BME280;40469;47.998;7.794;2023-06-24T11:27:27;99526.44;;;29.50;63.13
53908;BME280;40469;47.998;7.794;2023-06-24T11:29:53;99527.41;;;29.38;66.13
53908;BME280;40469;47.998;7.794;2023-06-24T11:32:18;99533.28;;;29.43;73.53
53908;BME280;40469;47.998;7.794;2023-06-24T11:34:43;99526.81;;;29.57;65.85
53908;BME280;40469;47.998;7.794;2023-06-24T11:37:12;99525.81;;;29.92;72.96
53908;BME280;40469;47.998;7.794;2023-06-24T11:39:37;99521.31;;;29.81;67.01
53908;BME280;40469;47.998;7.794;2023-06-24T11:42:05;99521.88;;;29.74;69.28
53908;BME280;40469;47.998;7.794;2023-06-24T11:44:31;99519.09;;;29.75;67.38
53908;BME280;40469;47.998;7.794;2023-06-24T11:47:02;99519.44;;;30.04;64.07
53908;BME280;40469;47.998;7.794;2023-06-24T11:49:28;99521.59;;;30.11;53.44
53908;BME280;40469;47.998;7.794;2023-06-24T11:51:53;99515.91;;;29.36;53.56
53908;BME280;40469;47.998;7.794;2023-06-24T11:54:19;99511.50;;;29.58;60.13
53908;BME280;40469;47.998;7.794;2023-06-24T11:56:49;99507.91;;;30.14;62.13
53908;BME280;40469;47.998;7.794;2023-06-24T11:59:19;99493.53;;;30.24;53.53
53908;BME280;40469;47.998;7.794;2023-06-24T12:01:45;99487.84;;;30.50;59.08
53908;BME280;40469;47.998;7.794;2023-06-24T12:04:11;99491.94;;;30.87;50.96
53908;BME280;40469;47.998;7.794;2023-06-24T12:06:36;99486.03;;;31.24;50.71
53908;BME280;40469;47.998;7.794;2023-06-24T12:09:02;99485.53;;;31.61;50.28
53908;BME280;40469;47.998;7.794;2023-06-24T12:11:27;99477.47;;;31.70;48.05
53908;BME280;40469;47.998;7.794;2023-06-24T12:13:52;99474.84;;;32.00;47.72
53908;BME280;40469;47.998;7.794;2023-06-24T12:16:18;99473.44;;;32.15;49.70
53908;BME280;40469;47.998;7.794;2023-06-24T12:18:43;99475.72;;;32.49;47.17
53908;BME280;40469;47.998;7.794;2023-06-24T12:21:08;99462.06;;;32.50;45.00
53908;BME280;40469;47.998;7.794;2023-06-24T12:23:34;99468.91;;;32.55;45.96
53908;BME280;40469;47.998;7.794;2023-06-24T12:25:59;99461.50;;;32.27;43.00
53908;BME280;40469;47.998;7.794;2023-06-24T12:28:24;99454.72;;;31.73;44.22
53908;BME280;40469;47.998;7.794;2023-06-24T12:30:50;99449.78;;;31.88;41.36
53908;BME280;40469;47.998;7.794;2023-06-24T12:33:16;99449.63;;;31.80;46.10
53908;BME280;40469;47.998;7.794;2023-06-24T12:35:44;99454.19;;;31.89;43.51
53908;BME280;40469;47.998;7.794;2023-06-24T12:38:09;99447.00;;;32.09;48.76
53908;BME280;40469;47.998;7.794;2023-06-24T12:40:34;99444.00;;;32.41;42.39
53908;BME280;40469;47.998;7.794;2023-06-24T12:42:59;99437.03;;;32.68;39.28
53908;BME280;40469;47.998;7.794;2023-06-24T12:45:24;99434.47;;;32.57;41.74
53908;BME280;40469;47.998;7.794;2023-06-24T12:47:50;99442.84;;;32.73;45.20
53908;BME280;40469;47.998;7.794;2023-06-24T12:50:16;99433.59;;;32.76;43.41
53908;BME280;40469;47.998;7.794;2023-06-24T12:52:41;99429.31;;;32.73;41.80
53908;BME280;40469;47.998;7.794;2023-06-24T12:55:06;99426.78;;;32.52;41.79
53908;BME280;40469;47.998;7.794;2023-06-24T12:57:32;99423.53;;;32.00;41.85
53908;BME280;40469;47.998;7.794;2023-06-24T12:59:57;99433.28;;;31.81;41.43
53908;BME280;40469;47.998;7.794;2023-06-24T13:02:22;99428.03;;;31.70;45.47
53908;BME280;40469;47.998;7.794;2023-06-24T13:04:47;99433.28;;;31.81;40.71
53908;BME280;40469;47.998;7.794;2023-06-24T13:07:12;99427.75;;;31.83;45.43